Kyokuho Maru No.15 — JI3715 — position and weather

sailwx.info

Track history (hours):
 
Tides and Currents Weather Stations Pressure Air Temp Water Temp Dewpoint Dewpoint Depression Visibility Wind Speed Wind Dir Waves Ship Positions

Kyokuho Maru No.15

Last reported at 2017-Aug-16 05:02 UTC. Time now 2017-Aug-23 23:26 UTC.
Position N 34°37' E 135°01'.

Length 63 m; draft 4.2 m.

Type: Tanker. MMSI: 431301714.

Date/timePositionNaut miles runAvg speedWind from/ knotsBaromVisibWave heightAir tempDewpointWater temp
2017-Aug-16 05:02N 34°37' E 135°01'013.7
2017-Aug-16 05:00N 34°37' E 135°02'510.9
2017-Aug-16 04:30N 34°36' E 135°08'611.2
2017-Aug-16 04:00N 34°38' E 135°15'3 6.6
2017-Aug-16 03:30N 34°40' E 135°18'0 0.0
2017-Aug-16 03:00N 34°40' E 135°18'0 0.0
2017-Aug-16 02:30N 34°40' E 135°18'0 0.0
2017-Aug-16 02:00N 34°40' E 135°18'0 0.0
2017-Aug-16 01:30N 34°40' E 135°18'0 0.0
2017-Aug-16 01:00N 34°40' E 135°18'0 0.0
2017-Aug-16 00:30N 34°40' E 135°18'0 0.0
2017-Aug-16 00:00N 34°40' E 135°18'0 0.0
2017-Aug-15 23:30N 34°40' E 135°18'0 0.0
2017-Aug-15 23:00N 34°40' E 135°18'0 0.0
2017-Aug-15 22:30N 34°40' E 135°18'0 0.0
2017-Aug-15 22:00N 34°40' E 135°18'1 1.3
2017-Aug-15 21:30N 34°39' E 135°18'4 8.4
2017-Aug-15 21:00N 34°36' E 135°21'611.2
2017-Aug-15 20:30N 34°31' E 135°24'0 0.0
2017-Aug-14 06:57N 34°31' E 135°24'4 8.9
2017-Aug-14 06:29N 34°35' E 135°23'511.3
2017-Aug-14 06:00N 34°40' E 135°25'0 0.2
2017-Aug-14 05:30N 34°40' E 135°25'0 0.0
2017-Aug-14 05:00N 34°40' E 135°25'0 0.0
2017-Aug-14 04:30N 34°40' E 135°25'0 0.0
2017-Aug-14 04:00N 34°40' E 135°25'0 0.0
2017-Aug-14 03:30N 34°40' E 135°25'0 0.0
2017-Aug-14 03:00N 34°40' E 135°25'0 0.0
2017-Aug-14 02:30N 34°40' E 135°25'0 0.0
2017-Aug-14 02:00N 34°40' E 135°25'0 0.0
2017-Aug-14 01:30N 34°40' E 135°25'1 2.6
2017-Aug-14 01:00N 34°39' E 135°26'3 1.6
2017-Aug-13 23:20N 34°38' E 135°29'0 0.9
2017-Aug-13 22:57N 34°38' E 135°29'3 7.5
2017-Aug-13 22:30N 34°39' E 135°25'610.3
2017-Aug-13 21:58N 34°33' E 135°23'3 5.2
2017-Aug-13 21:28N 34°31' E 135°24'0 0.0
2017-Aug-13 15:55N 34°31' E 135°24'0 0.0
2017-Aug-13 15:25N 34°31' E 135°24'0 0.0
2017-Aug-13 14:43N 34°31' E 135°24'0 0.0
2017-Aug-13 14:25N 34°31' E 135°24'0 0.0
2017-Aug-13 13:07N 34°31' E 135°24'0 0.0
2017-Aug-13 12:49N 34°31' E 135°24'0 0.0
2017-Aug-13 12:25N 34°31' E 135°24'0 0.0
2017-Aug-13 12:01N 34°31' E 135°24'0 0.0
2017-Aug-13 11:25N 34°31' E 135°24'0 0.0
2017-Aug-13 10:55N 34°31' E 135°24'0 0.0
2017-Aug-13 10:25N 34°31' E 135°24'0 0.0
2017-Aug-13 06:25N 34°31' E 135°24'0 0.0
2017-Aug-13 05:55N 34°31' E 135°24'0 0.0
2017-Aug-13 05:30N 34°31' E 135°24'0 0.0
2017-Aug-13 04:49N 34°31' E 135°24'0 0.0
2017-Aug-13 04:19N 34°31' E 135°24'0 0.0
2017-Aug-13 03:54N 34°31' E 135°24'0 0.0
2017-Aug-13 03:31N 34°31' E 135°24'0 0.0
2017-Aug-13 02:43N 34°31' E 135°24'0 0.0
2017-Aug-13 02:25N 34°31' E 135°24'0 0.0
2017-Aug-13 01:18N 34°31' E 135°24'0 0.0
2017-Aug-12 23:49N 34°31' E 135°24'0 0.0
2017-Aug-12 23:25N 34°31' E 135°24'0 0.0
2017-Aug-12 22:55N 34°31' E 135°24'0 0.0
2017-Aug-12 22:31N 34°31' E 135°24'0 0.5
2017-Aug-12 22:00N 34°31' E 135°24'2 0.4
2017-Aug-12 15:12N 34°32' E 135°22'0 0.0
2017-Aug-12 15:00N 34°32' E 135°22'0 0.0
2017-Aug-12 14:30N 34°32' E 135°22'0 0.0
2017-Aug-12 13:36N 34°32' E 135°22'0 0.0
2017-Aug-12 13:18N 34°32' E 135°22'0 0.2
2017-Aug-12 13:00N 34°32' E 135°22'3 5.6
2017-Aug-12 12:30N 34°31' E 135°19'610.7
2017-Aug-12 11:58N 34°27' E 135°13'510.6
2017-Aug-12 11:30N 34°24' E 135°09'611.3
2017-Aug-12 10:56N 34°19' E 135°05'511.5
2017-Aug-12 10:30N 34°14' E 135°03'611.3
2017-Aug-12 10:00N 34°08' E 135°03'206 8.7
2017-Aug-11 10:20N 34°47' E 139°08'513.5
2017-Aug-11 09:59N 34°51' E 139°11'1911.8
2017-Aug-11 08:24N 35°02' E 139°29'512.0
2017-Aug-11 08:00N 35°05' E 139°34'612.4
2017-Aug-11 07:30N 35°07' E 139°41'611.7
2017-Aug-11 07:00N 35°12' E 139°45'510.5
2017-Aug-11 06:30N 35°17' E 139°45'611.5
2017-Aug-11 06:00N 35°22' E 139°42'611.8
2017-Aug-11 05:30N 35°27' E 139°47'611.7
2017-Aug-11 05:00N 35°29' E 139°53'5 1.9
2017-Aug-11 02:36N 35°27' E 139°58'1 9.3
2017-Aug-11 02:30N 35°28' E 139°58'510.8
2017-Aug-11 02:00N 35°30' E 139°51'510.3
2017-Aug-11 01:30N 35°32' E 139°46'0 0.1
2017-Aug-10 23:35N 35°32' E 139°45'0 0.0
2017-Aug-10 23:25N 35°32' E 139°45'0 0.0
2017-Aug-10 22:58N 35°32' E 139°45'2 3.5
2017-Aug-10 22:30N 35°30' E 139°47'2 4.3
2017-Aug-10 22:00N 35°29' E 139°49'0 0.0
2017-Aug-10 21:30N 35°29' E 139°49'0 0.0
2017-Aug-10 21:00N 35°29' E 139°49'0 0.0
2017-Aug-10 20:30N 35°29' E 139°49'0 0.0
2017-Aug-10 20:00N 35°29' E 139°49'0 0.0
2017-Aug-10 19:30N 35°29' E 139°49'0 0.0
2017-Aug-10 19:00N 35°29' E 139°49'0 0.0
2017-Aug-10 18:30N 35°29' E 139°49'0 0.0
2017-Aug-10 18:00N 35°29' E 139°49'0 0.0
2017-Aug-10 17:30N 35°29' E 139°49'0 0.0
2017-Aug-10 16:57N 35°29' E 139°49'0 0.0
2017-Aug-10 16:30N 35°29' E 139°49'0 0.0
2017-Aug-10 16:00N 35°29' E 139°49'0 0.0
2017-Aug-10 15:30N 35°29' E 139°49'0 0.0
2017-Aug-10 15:00N 35°29' E 139°49'0 0.0
2017-Aug-10 14:30N 35°29' E 139°49'0 0.0
2017-Aug-10 14:00N 35°29' E 139°49'0 0.0
2017-Aug-10 13:30N 35°29' E 139°49'4 7.6
2017-Aug-10 13:00N 35°32' E 139°45'0 0.1
2017-Aug-10 12:30N 35°32' E 139°45'0 0.0
2017-Aug-10 12:00N 35°32' E 139°45'0 0.0
2017-Aug-10 11:30N 35°32' E 139°45'0 0.0
2017-Aug-10 11:00N 35°32' E 139°45'0 0.0
2017-Aug-10 10:30N 35°32' E 139°45'0 0.0
2017-Aug-10 10:00N 35°32' E 139°45'0 0.0
2017-Aug-10 09:30N 35°32' E 139°45'0 0.0
2017-Aug-10 09:00N 35°32' E 139°45'0 0.0
2017-Aug-10 08:30N 35°32' E 139°45'0 0.0
2017-Aug-10 08:00N 35°32' E 139°45'0 0.0
2017-Aug-10 07:30N 35°32' E 139°45'0 0.6
2017-Aug-10 07:00N 35°32' E 139°46'1 2.4
2017-Aug-10 06:30N 35°31' E 139°46'3 5.4
2017-Aug-10 06:00N 35°29' E 139°49'0 0.0
2017-Aug-10 05:30N 35°29' E 139°49'0 0.0
2017-Aug-10 05:00N 35°29' E 139°49'0 0.0
2017-Aug-10 04:30N 35°29' E 139°49'0 0.0
2017-Aug-10 04:00N 35°29' E 139°49'0 0.0
2017-Aug-10 03:30N 35°29' E 139°49'0 0.0
2017-Aug-10 03:00N 35°29' E 139°49'0 0.0
2017-Aug-10 02:30N 35°29' E 139°49'0 0.0
2017-Aug-10 02:00N 35°29' E 139°49'0 0.0
2017-Aug-10 01:30N 35°29' E 139°49'0 0.0
2017-Aug-10 01:00N 35°29' E 139°49'0 0.0
2017-Aug-10 00:30N 35°29' E 139°49'0 0.0
2017-Aug-10 00:00N 35°29' E 139°49'0 0.0
2017-Aug-09 23:27N 35°29' E 139°49'0 0.0
2017-Aug-09 23:00N 35°29' E 139°49'0 0.0
2017-Aug-09 22:30N 35°29' E 139°49'0 0.0
2017-Aug-09 22:00N 35°29' E 139°49'0 0.0
2017-Aug-09 21:30N 35°29' E 139°49'0 0.0
2017-Aug-09 21:00N 35°29' E 139°49'0 0.0
2017-Aug-09 20:30N 35°29' E 139°49'0 0.0
2017-Aug-09 20:00N 35°29' E 139°49'0 0.0
2017-Aug-09 19:30N 35°29' E 139°49'0 0.0
2017-Aug-09 19:00N 35°29' E 139°49'4 7.2
2017-Aug-09 18:30N 35°26' E 139°47'611.6
2017-Aug-09 18:00N 35°20' E 139°44'510.8
2017-Aug-09 17:30N 35°15' E 139°47'511.0
2017-Aug-09 17:00N 35°10' E 139°46'510.4
2017-Aug-09 16:30N 35°05' E 139°44'510.1
2017-Aug-09 16:00N 35°02' E 139°39'510.7
2017-Aug-09 15:30N 34°58' E 139°34'232 9.6
2017-Aug-08 15:23N 34°04' E 135°01'411.2
2017-Aug-08 15:01N 34°08' E 135°00'510.7
2017-Aug-08 14:30N 34°13' E 134°59'710.1
2017-Aug-08 13:50N 34°20' E 134°60'3 9.5
2017-Aug-08 13:29N 34°23' E 135°00'610.6
2017-Aug-08 12:55N 34°29' E 135°02'4 9.9
2017-Aug-08 12:30N 34°33' E 135°03'  
Track history (hours):
 
Tides and Currents Weather Stations Pressure Air Temp Water Temp Dewpoint Dewpoint Depression Visibility Wind Speed Wind Dir Waves Ship Positions

Kyokuho Maru No.15

Last reported at 2017-Aug-16 05:02 UTC. Time now 2017-Aug-23 23:26 UTC.
Position N 34°37' E 135°01'.

Length 63 m; draft 4.2 m.

Type: Tanker. MMSI: 431301714.

Date/timePositionNaut miles runAvg speedWind from/ knotsBaromVisibWave heightAir tempDewpointWater temp
2017-Aug-16 05:02N 34°37' E 135°01'013.7
2017-Aug-16 05:00N 34°37' E 135°02'510.9
2017-Aug-16 04:30N 34°36' E 135°08'611.2
2017-Aug-16 04:00N 34°38' E 135°15'3 6.6
2017-Aug-16 03:30N 34°40' E 135°18'0 0.0
2017-Aug-16 03:00N 34°40' E 135°18'0 0.0
2017-Aug-16 02:30N 34°40' E 135°18'0 0.0
2017-Aug-16 02:00N 34°40' E 135°18'0 0.0
2017-Aug-16 01:30N 34°40' E 135°18'0 0.0
2017-Aug-16 01:00N 34°40' E 135°18'0 0.0
2017-Aug-16 00:30N 34°40' E 135°18'0 0.0
2017-Aug-16 00:00N 34°40' E 135°18'0 0.0
2017-Aug-15 23:30N 34°40' E 135°18'0 0.0
2017-Aug-15 23:00N 34°40' E 135°18'0 0.0
2017-Aug-15 22:30N 34°40' E 135°18'0 0.0
2017-Aug-15 22:00N 34°40' E 135°18'1 1.3
2017-Aug-15 21:30N 34°39' E 135°18'4 8.4
2017-Aug-15 21:00N 34°36' E 135°21'611.2
2017-Aug-15 20:30N 34°31' E 135°24'0 0.0
2017-Aug-14 06:57N 34°31' E 135°24'4 8.9
2017-Aug-14 06:29N 34°35' E 135°23'511.3
2017-Aug-14 06:00N 34°40' E 135°25'0 0.2
2017-Aug-14 05:30N 34°40' E 135°25'0 0.0
2017-Aug-14 05:00N 34°40' E 135°25'0 0.0
2017-Aug-14 04:30N 34°40' E 135°25'0 0.0
2017-Aug-14 04:00N 34°40' E 135°25'0 0.0
2017-Aug-14 03:30N 34°40' E 135°25'0 0.0
2017-Aug-14 03:00N 34°40' E 135°25'0 0.0
2017-Aug-14 02:30N 34°40' E 135°25'0 0.0
2017-Aug-14 02:00N 34°40' E 135°25'0 0.0
2017-Aug-14 01:30N 34°40' E 135°25'1 2.6
2017-Aug-14 01:00N 34°39' E 135°26'3 1.6
2017-Aug-13 23:20N 34°38' E 135°29'0 0.9
2017-Aug-13 22:57N 34°38' E 135°29'3 7.5
2017-Aug-13 22:30N 34°39' E 135°25'610.3
2017-Aug-13 21:58N 34°33' E 135°23'3 5.2
2017-Aug-13 21:28N 34°31' E 135°24'0 0.0
2017-Aug-13 15:55N 34°31' E 135°24'0 0.0
2017-Aug-13 15:25N 34°31' E 135°24'0 0.0
2017-Aug-13 14:43N 34°31' E 135°24'0 0.0
2017-Aug-13 14:25N 34°31' E 135°24'0 0.0
2017-Aug-13 13:07N 34°31' E 135°24'0 0.0
2017-Aug-13 12:49N 34°31' E 135°24'0 0.0
2017-Aug-13 12:25N 34°31' E 135°24'0 0.0
2017-Aug-13 12:01N 34°31' E 135°24'0 0.0
2017-Aug-13 11:25N 34°31' E 135°24'0 0.0
2017-Aug-13 10:55N 34°31' E 135°24'0 0.0
2017-Aug-13 10:25N 34°31' E 135°24'0 0.0
2017-Aug-13 06:25N 34°31' E 135°24'0 0.0
2017-Aug-13 05:55N 34°31' E 135°24'0 0.0
2017-Aug-13 05:30N 34°31' E 135°24'0 0.0
2017-Aug-13 04:49N 34°31' E 135°24'0 0.0
2017-Aug-13 04:19N 34°31' E 135°24'0 0.0
2017-Aug-13 03:54N 34°31' E 135°24'0 0.0
2017-Aug-13 03:31N 34°31' E 135°24'0 0.0
2017-Aug-13 02:43N 34°31' E 135°24'0 0.0
2017-Aug-13 02:25N 34°31' E 135°24'0 0.0
2017-Aug-13 01:18N 34°31' E 135°24'0 0.0
2017-Aug-12 23:49N 34°31' E 135°24'0 0.0
2017-Aug-12 23:25N 34°31' E 135°24'0 0.0
2017-Aug-12 22:55N 34°31' E 135°24'0 0.0
2017-Aug-12 22:31N 34°31' E 135°24'0 0.5
2017-Aug-12 22:00N 34°31' E 135°24'2 0.4
2017-Aug-12 15:12N 34°32' E 135°22'0 0.0
2017-Aug-12 15:00N 34°32' E 135°22'0 0.0
2017-Aug-12 14:30N 34°32' E 135°22'0 0.0
2017-Aug-12 13:36N 34°32' E 135°22'0 0.0
2017-Aug-12 13:18N 34°32' E 135°22'0 0.2
2017-Aug-12 13:00N 34°32' E 135°22'3 5.6
2017-Aug-12 12:30N 34°31' E 135°19'610.7
2017-Aug-12 11:58N 34°27' E 135°13'510.6
2017-Aug-12 11:30N 34°24' E 135°09'611.3
2017-Aug-12 10:56N 34°19' E 135°05'511.5
2017-Aug-12 10:30N 34°14' E 135°03'611.3
2017-Aug-12 10:00N 34°08' E 135°03'206 8.7
2017-Aug-11 10:20N 34°47' E 139°08'513.5
2017-Aug-11 09:59N 34°51' E 139°11'1911.8
2017-Aug-11 08:24N 35°02' E 139°29'512.0
2017-Aug-11 08:00N 35°05' E 139°34'612.4
2017-Aug-11 07:30N 35°07' E 139°41'611.7
2017-Aug-11 07:00N 35°12' E 139°45'510.5
2017-Aug-11 06:30N 35°17' E 139°45'611.5
2017-Aug-11 06:00N 35°22' E 139°42'611.8
2017-Aug-11 05:30N 35°27' E 139°47'611.7
2017-Aug-11 05:00N 35°29' E 139°53'5 1.9
2017-Aug-11 02:36N 35°27' E 139°58'1 9.3
2017-Aug-11 02:30N 35°28' E 139°58'510.8
2017-Aug-11 02:00N 35°30' E 139°51'510.3
2017-Aug-11 01:30N 35°32' E 139°46'0 0.1
2017-Aug-10 23:35N 35°32' E 139°45'0 0.0
2017-Aug-10 23:25N 35°32' E 139°45'0 0.0
2017-Aug-10 22:58N 35°32' E 139°45'2 3.5
2017-Aug-10 22:30N 35°30' E 139°47'2 4.3
2017-Aug-10 22:00N 35°29' E 139°49'0 0.0
2017-Aug-10 21:30N 35°29' E 139°49'0 0.0
2017-Aug-10 21:00N 35°29' E 139°49'0 0.0
2017-Aug-10 20:30N 35°29' E 139°49'0 0.0
2017-Aug-10 20:00N 35°29' E 139°49'0 0.0
2017-Aug-10 19:30N 35°29' E 139°49'0 0.0
2017-Aug-10 19:00N 35°29' E 139°49'0 0.0
2017-Aug-10 18:30N 35°29' E 139°49'0 0.0
2017-Aug-10 18:00N 35°29' E 139°49'0 0.0
2017-Aug-10 17:30N 35°29' E 139°49'0 0.0
2017-Aug-10 16:57N 35°29' E 139°49'0 0.0
2017-Aug-10 16:30N 35°29' E 139°49'0 0.0
2017-Aug-10 16:00N 35°29' E 139°49'0 0.0
2017-Aug-10 15:30N 35°29' E 139°49'0 0.0
2017-Aug-10 15:00N 35°29' E 139°49'0 0.0
2017-Aug-10 14:30N 35°29' E 139°49'0 0.0
2017-Aug-10 14:00N 35°29' E 139°49'0 0.0
2017-Aug-10 13:30N 35°29' E 139°49'4 7.6
2017-Aug-10 13:00N 35°32' E 139°45'0 0.1
2017-Aug-10 12:30N 35°32' E 139°45'0 0.0
2017-Aug-10 12:00N 35°32' E 139°45'0 0.0
2017-Aug-10 11:30N 35°32' E 139°45'0 0.0
2017-Aug-10 11:00N 35°32' E 139°45'0 0.0
2017-Aug-10 10:30N 35°32' E 139°45'0 0.0
2017-Aug-10 10:00N 35°32' E 139°45'0 0.0
2017-Aug-10 09:30N 35°32' E 139°45'0 0.0
2017-Aug-10 09:00N 35°32' E 139°45'0 0.0
2017-Aug-10 08:30N 35°32' E 139°45'0 0.0
2017-Aug-10 08:00N 35°32' E 139°45'0 0.0
2017-Aug-10 07:30N 35°32' E 139°45'0 0.6
2017-Aug-10 07:00N 35°32' E 139°46'1 2.4
2017-Aug-10 06:30N 35°31' E 139°46'3 5.4
2017-Aug-10 06:00N 35°29' E 139°49'0 0.0
2017-Aug-10 05:30N 35°29' E 139°49'0 0.0
2017-Aug-10 05:00N 35°29' E 139°49'0 0.0
2017-Aug-10 04:30N 35°29' E 139°49'0 0.0
2017-Aug-10 04:00N 35°29' E 139°49'0 0.0
2017-Aug-10 03:30N 35°29' E 139°49'0 0.0
2017-Aug-10 03:00N 35°29' E 139°49'0 0.0
2017-Aug-10 02:30N 35°29' E 139°49'0 0.0
2017-Aug-10 02:00N 35°29' E 139°49'0 0.0
2017-Aug-10 01:30N 35°29' E 139°49'0 0.0
2017-Aug-10 01:00N 35°29' E 139°49'0 0.0
2017-Aug-10 00:30N 35°29' E 139°49'0 0.0
2017-Aug-10 00:00N 35°29' E 139°49'0 0.0
2017-Aug-09 23:27N 35°29' E 139°49'0 0.0
2017-Aug-09 23:00N 35°29' E 139°49'0 0.0
2017-Aug-09 22:30N 35°29' E 139°49'0 0.0
2017-Aug-09 22:00N 35°29' E 139°49'0 0.0
2017-Aug-09 21:30N 35°29' E 139°49'0 0.0
2017-Aug-09 21:00N 35°29' E 139°49'0 0.0
2017-Aug-09 20:30N 35°29' E 139°49'0 0.0
2017-Aug-09 20:00N 35°29' E 139°49'0 0.0
2017-Aug-09 19:30N 35°29' E 139°49'0 0.0
2017-Aug-09 19:00N 35°29' E 139°49'4 7.2
2017-Aug-09 18:30N 35°26' E 139°47'611.6
2017-Aug-09 18:00N 35°20' E 139°44'510.8
2017-Aug-09 17:30N 35°15' E 139°47'511.0
2017-Aug-09 17:00N 35°10' E 139°46'510.4
2017-Aug-09 16:30N 35°05' E 139°44'510.1
2017-Aug-09 16:00N 35°02' E 139°39'510.7
2017-Aug-09 15:30N 34°58' E 139°34'232 9.6
2017-Aug-08 15:23N 34°04' E 135°01'411.2
2017-Aug-08 15:01N 34°08' E 135°00'510.7
2017-Aug-08 14:30N 34°13' E 134°59'710.1
2017-Aug-08 13:50N 34°20' E 134°60'3 9.5
2017-Aug-08 13:29N 34°23' E 135°00'610.6
2017-Aug-08 12:55N 34°29' E 135°02'4 9.9
2017-Aug-08 12:30N 34°33' E 135°03'  

Dump ship's entire track history